Aérodrome :
LOGIN :

S'inscrire | Disclaimer

   EN    FR    IT 

 










Légende :    VFR   VFR Marginal   IFR   IFR Intensif   IFR Très Intensif
Visi : 
Plafond : 
>= 8 km
>= 3000ft
5 à 8 km
1000 à 3000 ft
1500m à 5 km
500 à 1000 ft
800 à 1500m
200 à 500 ft
< 800m
< 200 ft
Symboles :   Orages  Brouillard  Fortes neiges  Fortes précipitations  Vent > 20 kt
SIGMETs :   Divers  Orages  Givrage  Turbulence  Onde Orograph.  Cendres Volcan.







- Altitude de l'aérodrome : 1058 ft
- Code IATA : SCN


EDDR - Saarbrücken

DERNIER METAR :
  • 212220Z AUTO 33006KT 9999 // SCT060/// BKN090/// 17/16 Q1013

METARs EXPIRÉS :
  • 212150Z AUTO 10006KT 050V130 9999 // BKN060/// 17/16 Q1013
  • 212143Z AUTO VRB04KT 9999 // SCT060/// SCT080/// 17/16 Q1013
  • 212120Z AUTO 26012KT 9999 // SCT060/// 17/16 Q1012
  • 212050Z 23018G29KT 9999 -TSRA SCT025CB BKN100 17/16 Q1012
  • 212037Z 22022G34KT 190V260 9999 -TSRA SCT025CB BKN100 18/16 Q1012
  • 212029Z 20012G28KT 170V250 9999 VCTS FEW024CB SCT060 BKN100 21/15 Q1012 TEMPO 20015G30KT 4000 TSRA BKN015CB
  • 212020Z VRB02KT 9999 FEW024CB SCT060 BKN100 22/16 Q1011 TEMPO 20015G30KT 4000 TSRA BKN015CB
  • 211950Z VRB02KT CAVOK 22/15 Q1011 TEMPO 20015G30KT 4000 TSRA BKN015CB

TAF AMD TAF EDDR
Valide du 21 à 20h jusqu'au 22 à 18h UTC


212036Z 2120/2218 VRB03KT 9999 FEW030
TEMPO 2120/2205 TSRA BKN008 BKN035CB
PROB30
TEMPO 2120/2124 20020G35KT 4000 TSRAGR BKN012CB
BECMG 2205/2208 21007KT
PROB30
TEMPO 2211/2218 SHRA SCT045CB
Pas de NOTAMs connus pour ce terrain.
1 SIGMET publié pour la FIR Langen (EDGG) :
 
Orages fréquents
EDGG SIGMET 3 VALID 212100/212300 EDZF
EDGG LANGEN FIR FRQ TS FCST WI N4953 E00933 - N4847 E00946 - N4743 E00930 - N4841 E00802 - N4903 E00645 - N4952 E00658 - N4953 E00933 TOP FL400 MOV NE NC=



MET'MAP, la Météo Aéronautique d'un coup d'oeil ! - Copyright ORBIFLY Décembre 2007 - Disclaimer

ORBIFLY MET'MAP TEAM :

Programmation & Développement : Alexandra Zaïnal
Conception & Développement : Baudouin d'Aumeries
Co-Programmation & Développement : Marc-Olivier Méhu
Soutien technique & logistique : Manuel Goepfert

Contact : metmap@orbifly.com




SOURCES & CREDITS :

   NOAA